createdAt,value
2022-09-28T00:00:45.885Z,-101.97
2022-09-28T00:01:48.964Z,-101.95
2022-09-28T00:02:48.946Z,-101.66
2022-09-28T00:03:45.844Z,-101.76
2022-09-28T00:04:45.855Z,-101.76
2022-09-28T00:05:45.825Z,-101.53
2022-09-28T00:06:45.796Z,-101.52
2022-09-28T00:07:45.796Z,-101.47
2022-09-28T00:08:45.804Z,-101.26
2022-09-28T00:09:45.755Z,-101.25
2022-09-28T00:10:45.738Z,-101.15
2022-09-28T00:11:45.739Z,-101.09
2022-09-28T00:12:45.731Z,-101.01
2022-09-28T00:13:45.768Z,-101.11
2022-09-28T00:14:45.688Z,-100.96
2022-09-28T00:15:45.675Z,-101.02
2022-09-28T00:16:45.693Z,-100.91
2022-09-28T00:17:45.648Z,-100.84
2022-09-28T00:18:45.663Z,-100.85
2022-09-28T00:19:45.685Z,-100.79
2022-09-28T00:20:45.598Z,-100.78
2022-09-28T00:21:48.597Z,-100.80
2022-09-28T00:22:48.584Z,-100.54
2022-09-28T00:23:45.576Z,-100.51
2022-09-28T00:24:45.549Z,-100.51
2022-09-28T00:25:45.560Z,-100.60
2022-09-28T00:26:45.532Z,-100.64
2022-09-28T00:27:45.510Z,-100.69
2022-09-28T00:28:45.501Z,-100.75
2022-09-28T00:29:45.640Z,-100.81
2022-09-28T00:30:45.469Z,-100.82
2022-09-28T00:31:45.541Z,-101.00
2022-09-28T00:32:45.441Z,-100.91
2022-09-28T00:33:45.431Z,-101.10
2022-09-28T00:34:45.428Z,-101.25
2022-09-28T00:35:45.422Z,-101.23
2022-09-28T00:36:45.381Z,-101.41
2022-09-28T00:37:45.384Z,-101.40
2022-09-28T00:38:45.363Z,-101.48
2022-09-28T00:39:45.371Z,-101.47
2022-09-28T00:40:45.419Z,-101.50
2022-09-28T00:41:48.373Z,-101.48
2022-09-28T00:42:48.306Z,-101.37
2022-09-28T00:43:45.290Z,-101.42
2022-09-28T00:44:45.264Z,-101.49
2022-09-28T00:45:45.293Z,-101.53
2022-09-28T00:46:45.246Z,-101.45
2022-09-28T00:47:45.261Z,-101.45
2022-09-28T00:48:45.215Z,-101.49
2022-09-28T00:49:45.195Z,-101.46
2022-09-28T00:50:45.199Z,-101.42
2022-09-28T00:51:45.175Z,-101.35
2022-09-28T00:52:45.317Z,-101.32
2022-09-28T00:53:45.154Z,-101.31
2022-09-28T00:54:45.137Z,-101.29
2022-09-28T00:55:45.119Z,-101.23
2022-09-28T00:56:45.097Z,-101.14
2022-09-28T00:57:45.088Z,-101.21
2022-09-28T00:58:45.109Z,-101.07
2022-09-28T00:59:45.058Z,-101.16
2022-09-28T01:00:45.123Z,1107.83
2022-09-28T01:01:49.211Z,1107.83
2022-09-28T01:02:48.111Z,1107.83
2022-09-28T01:03:47.967Z,1107.83
2022-09-28T01:04:55.166Z,1107.83
2022-09-28T01:05:44.980Z,1107.83
2022-09-28T01:06:44.971Z,1107.83
2022-09-28T01:07:44.953Z,1107.83
2022-09-28T01:08:44.942Z,1107.83
2022-09-28T01:09:45.070Z,1107.83
2022-09-28T01:10:44.911Z,1107.83
2022-09-28T01:11:44.897Z,1107.83
2022-09-28T01:12:44.881Z,-101.44
2022-09-28T01:13:44.871Z,-100.99
2022-09-28T01:14:44.851Z,-100.43
2022-09-28T01:15:44.873Z,-98.90
2022-09-28T01:16:44.875Z,-98.50
2022-09-28T01:17:44.813Z,1107.83
2022-09-28T01:18:44.862Z,-98.31
2022-09-28T01:19:44.782Z,-98.33
2022-09-28T01:20:44.775Z,-98.14
2022-09-28T01:21:47.751Z,-98.65
2022-09-28T01:22:47.745Z,-98.50
2022-09-28T01:23:47.791Z,-98.44
2022-09-28T01:24:44.707Z,-97.83
2022-09-28T01:25:44.695Z,-97.76
2022-09-28T01:26:44.694Z,-97.85
2022-09-28T01:27:44.674Z,-97.91
2022-09-28T01:28:44.644Z,-97.85
2022-09-28T01:29:44.667Z,-97.83
2022-09-28T01:30:44.625Z,-97.78
2022-09-28T01:31:44.672Z,-97.69
2022-09-28T01:32:44.605Z,-98.40
2022-09-28T01:33:44.576Z,-97.99
2022-09-28T01:34:44.627Z,-97.89
2022-09-28T01:35:44.560Z,-97.79
2022-09-28T01:36:44.546Z,-97.66
2022-09-28T01:37:44.528Z,-97.62
2022-09-28T01:38:44.518Z,-97.43
2022-09-28T01:39:44.559Z,-97.32
2022-09-28T01:40:44.498Z,-97.06
2022-09-28T01:41:44.468Z,-95.81
2022-09-28T01:42:47.466Z,-97.07
2022-09-28T01:43:47.460Z,-95.72
2022-09-28T01:44:44.428Z,-95.66
2022-09-28T01:45:44.497Z,-95.64
2022-09-28T01:46:44.426Z,-95.55
2022-09-28T01:47:44.389Z,-95.65
2022-09-28T01:48:44.379Z,-95.55
2022-09-28T01:49:44.359Z,-95.56
2022-09-28T01:50:44.350Z,-95.49
2022-09-28T01:51:44.368Z,-95.48
2022-09-28T01:52:44.330Z,-95.49
2022-09-28T01:53:44.311Z,-95.54
2022-09-28T01:54:44.340Z,-95.34
2022-09-28T01:55:44.288Z,-94.76
2022-09-28T01:56:44.261Z,-94.53
2022-09-28T01:57:44.252Z,-94.31
2022-09-28T01:58:44.246Z,-92.84
2022-09-28T01:59:44.229Z,-92.68
2022-09-28T02:00:44.263Z,-95.81
2022-09-28T02:01:44.234Z,-95.61
2022-09-28T02:02:47.243Z,-97.06
2022-09-28T02:03:47.192Z,-95.81
2022-09-28T02:04:44.153Z,-97.11
2022-09-28T02:05:44.132Z,-97.27
2022-09-28T02:06:44.133Z,-97.26
2022-09-28T02:07:44.104Z,-97.30
2022-09-28T02:08:44.137Z,-97.58
2022-09-28T02:09:44.092Z,-97.51
2022-09-28T02:10:44.074Z,-97.45
2022-09-28T02:11:44.054Z,-97.34
2022-09-28T02:12:44.105Z,-97.45
2022-09-28T02:13:44.043Z,-97.55
2022-09-28T02:14:44.016Z,-97.60
2022-09-28T02:15:44.005Z,-97.06
2022-09-28T02:16:44.046Z,-95.70
2022-09-28T02:17:43.985Z,-95.66
2022-09-28T02:18:43.986Z,-95.79
2022-09-28T02:19:43.953Z,-95.77
2022-09-28T02:20:43.958Z,-95.58
2022-09-28T02:21:43.946Z,-95.65
2022-09-28T02:22:46.912Z,-95.76
2022-09-28T02:23:46.914Z,-95.66
2022-09-28T02:24:43.878Z,-97.11
2022-09-28T02:25:43.866Z,-97.43
2022-09-28T02:26:43.909Z,-97.70
2022-09-28T02:27:43.850Z,1107.83
2022-09-28T02:28:43.828Z,1107.83
2022-09-28T02:29:43.818Z,1107.83
2022-09-28T02:30:43.812Z,1107.83
2022-09-28T02:31:43.869Z,1107.83
2022-09-28T02:32:43.801Z,1107.83
2022-09-28T02:33:43.780Z,1107.83
2022-09-28T02:34:43.750Z,1107.83
2022-09-28T02:35:43.737Z,1107.83
2022-09-28T02:36:43.767Z,1107.83
2022-09-28T02:37:43.710Z,1107.83
2022-09-28T02:38:43.723Z,1107.83
2022-09-28T02:39:43.690Z,1107.83
2022-09-28T02:40:43.690Z,1107.83
2022-09-28T02:41:43.670Z,1107.83
2022-09-28T02:42:46.645Z,1107.83
2022-09-28T02:43:46.694Z,1107.83
2022-09-28T02:44:46.642Z,1107.83
2022-09-28T02:45:43.647Z,1107.83
2022-09-28T02:46:43.594Z,1107.83
2022-09-28T02:47:43.604Z,1107.83
2022-09-28T02:48:45.679Z,1107.83
2022-09-28T02:49:43.593Z,1107.83
2022-09-28T02:50:43.565Z,1107.83
2022-09-28T02:51:43.533Z,1107.83
2022-09-28T02:52:43.536Z,1107.83
2022-09-28T02:53:43.513Z,1107.83
2022-09-28T02:54:43.544Z,1107.83
2022-09-28T02:55:43.485Z,1107.83
2022-09-28T02:56:43.478Z,1107.83
2022-09-28T02:57:43.454Z,1107.83
2022-09-28T02:58:43.443Z,1107.83
2022-09-28T02:59:43.435Z,1107.83
2022-09-28T03:00:43.634Z,1107.83
2022-09-28T03:01:43.420Z,1107.83
2022-09-28T03:02:43.455Z,1107.83
2022-09-28T03:03:46.376Z,1107.83
2022-09-28T03:04:46.356Z,1107.83
2022-09-28T03:05:46.825Z,1107.83
2022-09-28T03:06:43.349Z,1107.83
2022-09-28T03:07:43.318Z,1107.83
2022-09-28T03:08:43.347Z,1107.83
2022-09-28T03:09:43.287Z,1107.83
2022-09-28T03:10:43.294Z,1107.83
2022-09-28T03:11:43.273Z,1107.83
2022-09-28T03:12:43.287Z,1107.83
2022-09-28T03:13:43.238Z,1107.83
2022-09-28T03:14:43.217Z,1107.83
2022-09-28T03:15:47.802Z,1107.83
2022-09-28T03:16:44.270Z,1107.83
2022-09-28T03:17:43.219Z,1107.83
2022-09-28T03:18:43.235Z,1107.83
2022-09-28T03:19:43.147Z,1107.83
2022-09-28T03:20:43.152Z,1107.83
2022-09-28T03:21:43.130Z,1107.83
2022-09-28T03:22:43.252Z,1107.83
2022-09-28T03:23:43.101Z,1107.83
2022-09-28T03:24:46.141Z,1107.83
2022-09-28T03:25:46.092Z,1107.83
2022-09-28T03:26:43.077Z,1107.83
2022-09-28T03:27:43.051Z,1107.83
2022-09-28T03:28:43.045Z,1107.83
2022-09-28T03:29:43.023Z,1107.83
2022-09-28T03:30:43.057Z,1107.83
2022-09-28T03:31:43.054Z,1107.83
2022-09-28T03:32:42.994Z,1107.83
2022-09-28T03:33:43.031Z,1107.83
2022-09-28T03:34:42.965Z,1107.83
2022-09-28T03:35:42.948Z,1107.83
2022-09-28T03:36:42.934Z,1107.83
2022-09-28T03:37:42.915Z,1107.83
2022-09-28T03:38:42.904Z,1107.83
2022-09-28T03:39:42.915Z,1107.83
2022-09-28T03:40:43.006Z,1107.83
2022-09-28T03:41:42.854Z,1107.83
2022-09-28T03:42:42.845Z,1107.83
2022-09-28T03:43:42.837Z,1107.83
2022-09-28T03:44:45.864Z,1107.83
2022-09-28T03:45:45.890Z,1107.83
2022-09-28T03:46:42.828Z,1107.83
2022-09-28T03:47:42.776Z,1107.83
2022-09-28T03:48:42.767Z,1107.83
2022-09-28T03:49:42.755Z,1107.83
2022-09-28T03:50:42.746Z,1107.83
2022-09-28T03:51:42.780Z,1107.83
2022-09-28T03:52:42.716Z,1107.83
2022-09-28T03:53:42.699Z,1107.83
2022-09-28T03:54:46.950Z,1107.83
2022-09-28T03:55:43.677Z,1107.83
2022-09-28T03:56:42.677Z,1107.83
2022-09-28T03:57:42.708Z,1107.83
2022-09-28T03:58:42.628Z,1107.83
2022-09-28T03:59:42.616Z,1107.83
2022-09-28T04:00:42.645Z,1107.83
2022-09-28T04:01:42.614Z,1107.83
2022-09-28T04:02:42.571Z,1107.83
2022-09-28T04:03:42.581Z,1107.83
2022-09-28T04:04:45.520Z,1107.83
2022-09-28T04:05:45.541Z,1107.83
2022-09-28T04:06:42.522Z,1107.83
2022-09-28T04:07:42.490Z,1107.83
2022-09-28T04:08:42.650Z,1107.83
2022-09-28T04:09:42.468Z,1107.83
2022-09-28T04:10:42.441Z,1107.83
2022-09-28T04:11:59.703Z,1107.83
2022-09-28T04:12:43.445Z,1107.83
2022-09-28T04:13:42.401Z,1107.83
2022-09-28T04:14:42.433Z,1107.83
2022-09-28T04:15:42.383Z,1107.83
2022-09-28T04:16:42.424Z,1107.83
2022-09-28T04:17:42.367Z,1107.83
2022-09-28T04:18:42.409Z,1107.83
2022-09-28T04:19:42.342Z,1107.83
2022-09-28T04:20:42.332Z,1107.83
2022-09-28T04:21:42.324Z,1107.83
2022-09-28T04:22:42.293Z,1107.83
2022-09-28T04:23:42.292Z,1107.83
2022-09-28T04:24:45.319Z,1107.83
2022-09-28T04:25:45.284Z,1107.83
2022-09-28T04:26:42.291Z,1107.83
2022-09-28T04:27:42.244Z,1107.83
2022-09-28T04:28:42.245Z,1107.83
2022-09-28T04:29:42.215Z,1107.83
2022-09-28T04:30:42.196Z,1107.83
2022-09-28T04:31:42.318Z,1107.83
2022-09-28T04:32:42.175Z,1107.83
2022-09-28T04:33:42.169Z,1107.83
2022-09-28T04:34:44.285Z,1107.83
2022-09-28T04:35:42.137Z,1107.83
2022-09-28T04:36:42.118Z,1107.83
2022-09-28T04:37:42.167Z,1107.83
2022-09-28T04:38:52.730Z,1107.83
2022-09-28T04:39:47.467Z,1107.83
2022-09-28T04:40:43.145Z,1107.83
2022-09-28T04:41:42.062Z,1107.83
2022-09-28T04:42:42.051Z,1107.83
2022-09-28T04:43:42.058Z,1107.83
2022-09-28T04:44:45.018Z,1107.83
2022-09-28T04:45:45.086Z,1107.83
2022-09-28T04:46:41.998Z,1107.83
2022-09-28T04:47:42.148Z,1107.83
2022-09-28T04:48:41.967Z,1107.83
2022-09-28T04:49:41.954Z,1107.83
2022-09-28T04:50:41.939Z,1107.83
2022-09-28T04:51:41.925Z,1107.83
2022-09-28T04:52:41.913Z,1107.83
2022-09-28T04:53:41.909Z,1107.83
2022-09-28T04:54:41.920Z,1107.83
2022-09-28T04:55:41.890Z,1107.83
2022-09-28T04:56:41.910Z,1107.83
2022-09-28T04:57:41.851Z,1107.83
2022-09-28T04:58:41.844Z,1107.83
2022-09-28T04:59:41.811Z,1107.83
2022-09-28T05:00:41.848Z,1107.83
2022-09-28T05:01:41.792Z,1107.83
2022-09-28T05:02:41.887Z,1107.83
2022-09-28T05:03:41.773Z,1107.83
2022-09-28T05:04:44.762Z,1107.83
2022-09-28T05:05:44.765Z,1107.83
2022-09-28T05:06:41.771Z,1107.83
2022-09-28T05:07:41.713Z,1107.83
2022-09-28T05:08:41.737Z,1107.83
2022-09-28T05:09:41.698Z,1107.83
2022-09-28T05:10:41.704Z,1107.83
2022-09-28T05:11:41.673Z,1107.83
2022-09-28T05:12:41.674Z,1107.83
2022-09-28T05:13:41.679Z,1107.83
2022-09-28T05:14:41.665Z,1107.83
2022-09-28T05:15:41.625Z,1107.83
2022-09-28T05:16:41.689Z,1107.83
2022-09-28T05:17:41.591Z,1107.83
2022-09-28T05:18:41.565Z,1107.83
2022-09-28T05:19:41.555Z,1107.83
2022-09-28T05:20:41.565Z,1107.83
2022-09-28T05:21:41.547Z,1107.83
2022-09-28T05:22:41.557Z,1107.83
2022-09-28T05:23:41.515Z,1107.83
2022-09-28T05:24:44.491Z,1107.83
2022-09-28T05:25:44.497Z,1107.83
2022-09-28T05:26:41.457Z,1107.83
2022-09-28T05:27:41.507Z,1107.83
2022-09-28T05:28:41.438Z,1107.83
2022-09-28T05:29:41.429Z,1107.83
2022-09-28T05:30:41.420Z,1107.83
2022-09-28T05:31:41.475Z,1107.83
2022-09-28T05:32:41.370Z,1107.83
2022-09-28T05:33:41.419Z,1107.83
2022-09-28T05:34:41.349Z,1107.83
2022-09-28T05:35:41.339Z,1107.83
2022-09-28T05:36:41.549Z,1107.83
2022-09-28T05:37:41.599Z,1107.83
2022-09-28T05:38:50.070Z,1107.83
2022-09-28T05:39:41.518Z,1107.83
2022-09-28T05:40:41.508Z,1107.83
2022-09-28T05:41:41.738Z,1107.83
2022-09-28T05:42:41.516Z,1107.83
2022-09-28T05:43:41.488Z,1107.83
2022-09-28T05:44:45.093Z,1107.83
2022-09-28T05:45:44.590Z,1107.83
2022-09-28T05:46:41.588Z,1107.83
2022-09-28T05:47:41.513Z,1107.83
2022-09-28T05:48:41.415Z,1107.83
2022-09-28T05:49:41.373Z,1107.83
2022-09-28T05:50:41.398Z,1107.83
2022-09-28T05:51:41.477Z,1107.83
2022-09-28T05:52:41.340Z,1107.83
2022-09-28T05:53:41.609Z,1107.83
2022-09-28T05:54:41.219Z,1107.83
2022-09-28T05:55:41.224Z,1107.83
2022-09-28T05:56:41.156Z,1107.83
2022-09-28T05:57:41.155Z,1107.83
2022-09-28T05:58:41.204Z,1107.83
2022-09-28T05:59:41.065Z,1107.83
2022-09-28T06:00:55.233Z,1107.83
2022-09-28T06:01:41.159Z,1107.83
2022-09-28T06:02:41.144Z,1107.83
2022-09-28T06:03:41.065Z,1107.83
2022-09-28T06:04:44.065Z,1107.83
2022-09-28T06:05:44.025Z,1107.83
2022-09-28T06:06:41.135Z,1107.83
2022-09-28T06:07:40.966Z,1107.83
2022-09-28T06:08:40.965Z,1107.83
2022-09-28T06:09:40.947Z,1107.83
2022-09-28T06:10:40.925Z,1107.83
2022-09-28T06:11:40.876Z,1107.83
2022-09-28T06:12:40.879Z,1107.83
2022-09-28T06:13:40.867Z,1107.83
2022-09-28T06:14:40.855Z,1107.83
2022-09-28T06:15:40.828Z,1107.83
2022-09-28T06:16:43.845Z,1107.83
2022-09-28T06:17:40.819Z,1107.83
2022-09-28T06:18:40.768Z,1107.83
2022-09-28T06:19:40.789Z,1107.83
2022-09-28T06:20:40.755Z,1107.83
2022-09-28T06:21:40.738Z,1107.83
2022-09-28T06:22:40.726Z,1107.83
2022-09-28T06:23:42.710Z,1107.83
2022-09-28T06:24:43.720Z,1107.83
2022-09-28T06:25:43.694Z,1107.83
2022-09-28T06:26:40.661Z,1107.83
2022-09-28T06:27:40.673Z,1107.83
2022-09-28T06:28:40.641Z,1107.83
2022-09-28T06:29:40.631Z,1107.83
2022-09-28T06:30:40.656Z,1107.83
2022-09-28T06:31:40.611Z,1107.83
2022-09-28T06:32:40.612Z,1107.83
2022-09-28T06:33:40.569Z,1107.83
2022-09-28T06:34:40.554Z,1107.83
2022-09-28T06:35:40.566Z,1107.83
2022-09-28T06:36:40.533Z,1107.83
2022-09-28T06:37:40.553Z,1107.83
2022-09-28T06:38:40.502Z,1107.83
2022-09-28T06:39:40.476Z,1107.83
2022-09-28T06:40:40.506Z,1107.83
2022-09-28T06:41:40.454Z,1107.83
2022-09-28T06:42:40.444Z,1107.83
2022-09-28T06:43:40.464Z,1107.83
2022-09-28T06:44:43.418Z,1107.83
2022-09-28T06:45:43.434Z,1107.83
2022-09-28T06:46:40.393Z,1107.83
2022-09-28T06:47:40.387Z,1107.83
2022-09-28T06:48:40.415Z,1107.83
2022-09-28T06:49:40.347Z,1107.83
2022-09-28T06:50:40.335Z,1107.83
2022-09-28T06:51:40.331Z,1107.83
2022-09-28T06:52:40.295Z,1107.83
2022-09-28T06:53:40.294Z,1107.83
2022-09-28T06:54:40.306Z,1107.83
2022-09-28T06:55:40.268Z,1107.83
2022-09-28T06:56:40.237Z,1107.83
2022-09-28T06:57:40.237Z,1107.83
2022-09-28T06:58:40.208Z,1107.83
2022-09-28T06:59:40.227Z,1107.83
2022-09-28T07:00:40.224Z,1107.83
2022-09-28T07:01:40.243Z,1107.83
2022-09-28T07:02:40.222Z,1107.83
2022-09-28T07:03:40.156Z,1107.83
2022-09-28T07:04:43.169Z,1107.83
2022-09-28T07:05:43.130Z,1107.83
2022-09-28T07:06:40.153Z,1107.83
2022-09-28T07:07:40.091Z,1107.83
2022-09-28T07:08:40.083Z,1107.83
2022-09-28T07:09:44.938Z,1107.83
2022-09-28T07:10:41.075Z,1107.83
2022-09-28T07:11:40.050Z,1107.83
2022-09-28T07:12:40.060Z,1107.83
2022-09-28T07:13:50.408Z,1107.83
2022-09-28T07:14:47.699Z,1107.83
2022-09-28T07:15:41.002Z,1107.83
2022-09-28T07:17:05.203Z,1107.83
2022-09-28T07:17:55.822Z,1107.83
2022-09-28T07:18:40.942Z,1107.83
2022-09-28T07:19:39.933Z,1107.83
2022-09-28T07:20:51.852Z,1107.83
2022-09-28T07:21:40.903Z,1107.83
2022-09-28T07:22:43.367Z,1107.83
2022-09-28T07:23:50.921Z,1107.83
2022-09-28T07:24:43.864Z,1107.83
2022-09-28T07:25:42.876Z,1107.83
2022-09-28T07:26:39.840Z,1107.83
2022-09-28T07:27:39.844Z,1107.83
2022-09-28T07:28:39.874Z,1107.83
2022-09-28T07:29:39.806Z,1107.83
2022-09-28T07:30:39.893Z,1107.83
2022-09-28T07:31:39.796Z,1107.83
2022-09-28T07:32:39.765Z,1107.83
2022-09-28T07:33:39.759Z,1107.83
2022-09-28T07:34:39.777Z,1107.83
2022-09-28T07:35:39.726Z,1107.83
2022-09-28T07:36:39.708Z,1107.83
2022-09-28T07:37:39.698Z,1107.83
2022-09-28T07:38:39.683Z,1107.83
2022-09-28T07:39:39.688Z,1107.83
2022-09-28T07:40:39.868Z,1107.83
2022-09-28T07:43:32.130Z,-115.37
2022-09-28T07:44:43.860Z,-115.59
2022-09-28T07:45:32.363Z,-116.82
2022-09-28T07:46:31.726Z,-117.52
2022-09-28T07:47:35.106Z,-117.82
2022-09-28T07:48:31.785Z,-117.10
2022-09-28T07:49:31.780Z,-117.16
2022-09-28T07:50:31.789Z,-117.54
2022-09-28T07:51:31.650Z,-117.84
2022-09-28T07:52:31.830Z,-118.37
2022-09-28T07:53:31.872Z,-118.76
2022-09-28T07:54:31.899Z,-118.92
2022-09-28T07:55:31.559Z,-119.50
2022-09-28T07:56:31.498Z,-119.57
2022-09-28T07:57:31.527Z,-119.97
2022-09-28T07:58:31.471Z,-120.25
2022-09-28T07:59:31.503Z,-120.69
2022-09-28T08:00:34.153Z,-120.28
2022-09-28T08:01:31.470Z,-119.92
2022-09-28T08:02:34.562Z,-119.80
2022-09-28T08:03:34.427Z,-119.88
2022-09-28T08:04:31.539Z,-120.07
2022-09-28T08:05:31.541Z,-120.78
2022-09-28T08:06:31.636Z,-121.16
2022-09-28T08:07:31.614Z,-120.97
2022-09-28T08:08:31.394Z,-121.10
2022-09-28T08:09:31.465Z,-120.90
2022-09-28T08:10:31.479Z,-120.66
2022-09-28T08:11:31.388Z,-120.84
2022-09-28T08:12:31.424Z,-121.23
2022-09-28T08:13:31.369Z,-121.61
2022-09-28T08:14:31.437Z,-121.96
2022-09-28T08:15:31.338Z,-122.53
2022-09-28T08:16:31.409Z,-122.65
2022-09-28T08:17:31.227Z,-122.76
2022-09-28T08:18:31.245Z,-122.74
2022-09-28T08:19:31.177Z,-123.15
2022-09-28T08:20:31.216Z,-123.44
2022-09-28T08:21:31.207Z,-123.92
2022-09-28T08:22:34.181Z,-124.58
2022-09-28T08:23:34.147Z,-122.43
2022-09-28T08:24:31.116Z,-121.52
2022-09-28T08:25:31.098Z,-122.91
2022-09-28T08:26:31.092Z,-123.30
2022-09-28T08:27:31.118Z,-124.51
2022-09-28T08:28:31.058Z,-125.31
2022-09-28T08:29:31.086Z,-125.57
2022-09-28T08:30:31.072Z,-125.85
2022-09-28T08:31:31.009Z,-126.03
2022-09-28T08:32:31.025Z,-126.03
2022-09-28T08:33:31.049Z,-127.07
2022-09-28T08:34:30.980Z,-127.24
2022-09-28T08:35:30.953Z,-127.24
2022-09-28T08:36:30.950Z,-127.18
2022-09-28T08:37:30.950Z,-126.03
2022-09-28T08:38:30.944Z,-126.03
2022-09-28T08:39:30.945Z,-125.86
2022-09-28T08:40:30.979Z,-125.44
2022-09-28T08:41:30.953Z,-124.81
2022-09-28T08:42:33.882Z,-125.95
2022-09-28T08:43:33.893Z,-126.76
2022-09-28T08:44:30.910Z,-127.24
2022-09-28T08:45:30.836Z,-128.46
2022-09-28T08:46:30.855Z,-129.68
2022-09-28T08:47:30.836Z,-129.68
2022-09-28T08:48:30.815Z,-130.90
2022-09-28T08:49:30.947Z,-130.90
2022-09-28T08:50:30.760Z,-130.90
2022-09-28T08:51:30.765Z,-130.90
2022-09-28T08:52:30.725Z,-132.12
2022-09-28T08:53:30.910Z,-132.12
2022-09-28T08:54:30.723Z,-132.12
2022-09-28T08:55:30.685Z,-133.34
2022-09-28T08:56:30.677Z,-133.34
2022-09-28T08:57:30.678Z,-134.56
2022-09-28T08:58:30.647Z,-133.34
2022-09-28T08:59:30.658Z,-133.34
2022-09-28T09:00:30.643Z,-133.34
2022-09-28T09:01:30.642Z,-133.34
2022-09-28T09:02:33.898Z,-133.34
2022-09-28T09:03:33.640Z,-133.34
2022-09-28T09:04:30.612Z,-133.34
2022-09-28T09:05:30.548Z,-134.56
2022-09-28T09:06:30.559Z,-134.56
2022-09-28T09:07:30.540Z,-135.77
2022-09-28T09:08:30.520Z,-135.77
2022-09-28T09:09:30.570Z,-135.77
2022-09-28T09:10:30.560Z,-134.56
2022-09-28T09:11:30.481Z,-134.56
2022-09-28T09:12:30.463Z,-134.56
2022-09-28T09:13:30.457Z,-134.56
2022-09-28T09:14:30.452Z,-134.56
2022-09-28T09:15:30.452Z,-134.56
2022-09-28T09:16:30.488Z,-135.77
2022-09-28T09:17:30.420Z,-135.77
2022-09-28T09:18:30.389Z,-135.77
2022-09-28T09:19:30.403Z,-136.99
2022-09-28T09:20:30.372Z,-136.99
2022-09-28T09:21:30.352Z,-135.77
2022-09-28T09:22:33.349Z,-136.99
2022-09-28T09:23:33.337Z,-136.99
2022-09-28T09:24:30.374Z,-136.99
2022-09-28T09:25:30.312Z,-136.99
2022-09-28T09:26:30.276Z,-138.21
2022-09-28T09:27:30.274Z,-138.21
2022-09-28T09:28:30.265Z,-136.99
2022-09-28T09:29:30.243Z,-135.77
2022-09-28T09:30:31.656Z,-135.77
2022-09-28T09:31:30.224Z,-136.99
2022-09-28T09:32:30.196Z,-135.77
2022-09-28T09:33:30.198Z,-136.99
2022-09-28T09:34:30.208Z,-135.77
2022-09-28T09:35:31.419Z,-135.77
2022-09-28T09:36:30.141Z,-135.77
2022-09-28T09:37:30.138Z,-135.77
2022-09-28T09:38:30.101Z,-135.77
2022-09-28T09:39:30.106Z,-135.77
2022-09-28T09:40:30.142Z,-134.56
2022-09-28T09:41:30.110Z,-134.56
2022-09-28T09:42:33.060Z,-134.56
2022-09-28T09:43:33.048Z,-134.56
2022-09-28T09:44:30.021Z,-135.77
2022-09-28T09:45:30.105Z,-135.77
2022-09-28T09:46:30.020Z,-135.77
2022-09-28T09:47:30.031Z,-134.56
2022-09-28T09:48:29.985Z,-134.56
2022-09-28T09:49:29.968Z,-134.56
2022-09-28T09:50:30.001Z,-135.77
2022-09-28T09:51:29.932Z,-134.56
2022-09-28T09:52:30.027Z,-134.56
2022-09-28T09:53:29.894Z,-134.56
2022-09-28T09:54:29.883Z,-134.56
2022-09-28T09:55:30.468Z,-134.56
2022-09-28T09:56:29.864Z,-134.56
2022-09-28T09:57:29.851Z,-133.34
2022-09-28T09:58:29.876Z,-133.34
2022-09-28T09:59:29.854Z,-133.34
2022-09-28T10:00:29.805Z,-134.56
2022-09-28T10:01:29.844Z,-134.56
2022-09-28T10:02:32.836Z,-135.77
2022-09-28T10:03:32.817Z,-135.77
2022-09-28T10:04:29.758Z,-134.56
2022-09-28T10:05:29.762Z,-135.77
2022-09-28T10:06:29.722Z,-134.56
2022-09-28T10:07:29.885Z,-134.56
2022-09-28T10:08:29.699Z,-134.56
2022-09-28T10:09:29.708Z,-133.34
2022-09-28T10:10:29.689Z,-133.34
2022-09-28T10:11:29.669Z,-133.34
2022-09-28T10:12:29.667Z,-133.34
2022-09-28T10:13:29.686Z,-133.34
2022-09-28T10:14:29.631Z,-134.56
2022-09-28T10:15:29.600Z,-134.56
2022-09-28T10:16:29.702Z,-135.77
2022-09-28T10:17:29.580Z,-135.77
2022-09-28T10:18:29.577Z,-135.77
2022-09-28T10:19:29.551Z,-135.77
2022-09-28T10:20:29.569Z,-135.77
2022-09-28T10:21:29.528Z,-135.77
2022-09-28T10:22:32.544Z,-134.56
2022-09-28T10:23:32.514Z,-134.56
2022-09-28T10:24:29.555Z,-134.56
2022-09-28T10:25:29.556Z,-134.56
2022-09-28T10:26:29.445Z,-134.56
2022-09-28T10:27:29.458Z,-135.77
2022-09-28T10:28:29.466Z,-135.77
2022-09-28T10:29:29.419Z,-136.99
2022-09-28T10:30:29.438Z,-138.21
2022-09-28T10:31:29.447Z,-138.21
2022-09-28T10:32:29.354Z,-139.43
2022-09-28T10:33:29.345Z,-138.21
2022-09-28T10:34:29.337Z,-138.21
2022-09-28T10:35:29.327Z,-136.99
2022-09-28T10:36:29.307Z,-138.21
2022-09-28T10:37:29.340Z,-138.21
2022-09-28T10:38:29.277Z,-138.21
2022-09-28T10:39:29.267Z,-139.43
2022-09-28T10:40:29.277Z,-138.21
2022-09-28T10:41:29.247Z,-138.21
2022-09-28T10:42:32.248Z,-136.99
2022-09-28T10:43:32.230Z,-138.21
2022-09-28T10:44:29.194Z,-138.21
2022-09-28T10:45:29.217Z,-139.43
2022-09-28T10:46:29.223Z,-139.43
2022-09-28T10:47:29.156Z,-139.43
2022-09-28T10:48:29.127Z,-139.43
2022-09-28T10:49:29.112Z,-140.65
2022-09-28T10:50:29.173Z,-139.43
2022-09-28T10:51:29.091Z,-140.65
2022-09-28T10:52:29.072Z,-140.65
2022-09-28T10:53:29.075Z,-140.65
2022-09-28T10:54:29.051Z,-140.65
2022-09-28T10:55:29.042Z,-140.65
2022-09-28T10:56:29.051Z,-141.87
2022-09-28T10:57:29.021Z,-141.87
2022-09-28T10:58:29.020Z,-141.87
2022-09-28T10:59:28.984Z,-141.87
2022-09-28T11:00:28.964Z,-141.87
2022-09-28T11:01:28.984Z,-141.87
2022-09-28T11:02:35.678Z,-143.08
2022-09-28T11:03:31.994Z,-143.08
2022-09-28T11:04:28.919Z,-143.08
2022-09-28T11:05:28.897Z,-143.08
2022-09-28T11:06:28.935Z,-143.08
2022-09-28T11:07:28.878Z,-141.87
2022-09-28T11:08:28.859Z,-141.87
2022-09-28T11:09:30.834Z,-140.65
2022-09-28T11:10:28.836Z,-140.65
2022-09-28T11:11:28.817Z,-141.87
2022-09-28T11:12:28.837Z,-141.87
2022-09-28T11:13:30.148Z,-141.87
2022-09-28T11:14:28.779Z,-141.87
2022-09-28T11:15:28.797Z,-141.87
2022-09-28T11:16:28.815Z,-141.87
2022-09-28T11:17:28.739Z,-143.08
2022-09-28T11:18:28.749Z,-143.08
2022-09-28T11:19:28.717Z,-143.08
2022-09-28T11:20:28.790Z,-143.08
2022-09-28T11:21:28.694Z,-144.30
2022-09-28T11:22:31.671Z,-143.08
2022-09-28T11:23:31.723Z,-141.87
2022-09-28T11:24:28.641Z,-143.08
2022-09-28T11:25:28.660Z,-143.08
2022-09-28T11:26:28.621Z,-143.08
2022-09-28T11:27:28.622Z,-143.08
2022-09-28T11:28:28.652Z,-143.08
2022-09-28T11:29:28.588Z,-143.08
2022-09-28T11:30:28.619Z,-143.08
2022-09-28T11:31:28.554Z,-143.08
2022-09-28T11:32:28.554Z,-144.30
2022-09-28T11:33:28.534Z,-144.30
2022-09-28T11:34:41.808Z,-144.30
2022-09-28T11:35:29.496Z,-144.30
2022-09-28T11:36:28.506Z,-144.30
2022-09-28T11:37:28.485Z,-144.30
2022-09-28T11:38:28.465Z,-145.52
2022-09-28T11:39:28.509Z,-145.52
2022-09-28T11:40:28.453Z,-145.52
2022-09-28T11:41:28.407Z,-145.52
2022-09-28T11:42:31.409Z,-145.52
2022-09-28T11:43:31.436Z,-145.52
2022-09-28T11:44:31.097Z,-145.52
2022-09-28T11:45:29.398Z,-144.30
2022-09-28T11:46:28.390Z,-144.30
2022-09-28T11:47:28.341Z,-144.30
2022-09-28T11:48:28.328Z,-144.30
2022-09-28T11:49:28.320Z,-144.30
2022-09-28T11:50:28.355Z,-144.30
2022-09-28T11:51:28.272Z,-144.30
2022-09-28T11:52:28.271Z,-144.30
2022-09-28T11:53:28.304Z,-144.30
2022-09-28T11:54:28.251Z,-144.30
2022-09-28T11:55:28.232Z,-144.30
2022-09-28T11:56:28.271Z,-145.52
2022-09-28T11:57:28.220Z,-145.52
2022-09-28T11:58:28.193Z,-145.52
2022-09-28T11:59:28.183Z,-145.52
2022-09-28T12:00:28.162Z,-145.52
2022-09-28T12:01:28.151Z,-145.52
2022-09-28T12:02:31.302Z,-145.52
2022-09-28T12:03:31.323Z,-146.74
2022-09-28T12:04:28.105Z,-146.74
2022-09-28T12:05:28.134Z,-146.74
2022-09-28T12:06:28.085Z,-147.96
2022-09-28T12:07:28.066Z,-146.74
2022-09-28T12:08:28.055Z,-147.96
2022-09-28T12:09:28.045Z,-147.96